Time;durP1;ratioP1;P1;durP2;ratioP2;P2;SDS_P1;SDS_P2;PMS_P1;PMS_P2;Temp;Humidity;BMP_temperature;BMP_pressure;BME280_temperature;BME280_humidity;BME280_pressure;Samples;Min_cycle;Max_cycle;Signal;HPM_P1;HPM_P2
2023/10/24 00:01:48;;;;;;;9.20;5.55;;;;;;;12.18;nan;100473.72;5025617;28;20033;-72
2023/10/24 00:04:13;;;;;;;11.82;5.50;;;;;;;12.13;nan;100474.41;5019438;28;20038;-72
2023/10/24 00:06:39;;;;;;;11.15;5.13;;;;;;;12.07;nan;100462.16;5020484;28;20476;-73
2023/10/24 00:09:04;;;;;;;10.02;5.03;;;;;;;12.09;nan;100468.81;5016359;28;20075;-73
2023/10/24 00:11:30;;;;;;;12.25;5.63;;;;;;;12.08;nan;100469.03;5026534;28;20104;-70
2023/10/24 00:13:55;;;;;;;11.85;5.45;;;;;;;12.06;nan;100468.44;5018963;28;20211;-72
2023/10/24 00:16:21;;;;;;;8.65;5.80;;;;;;;12.03;nan;100475.00;5018544;28;20721;-72
2023/10/24 00:18:47;;;;;;;10.25;5.43;;;;;;;11.99;nan;100460.66;5020390;28;20025;-72
2023/10/24 00:21:12;;;;;;;9.25;5.05;;;;;;;12.01;nan;100466.50;5021073;28;20028;-72
2023/10/24 00:23:37;;;;;;;9.27;5.00;;;;;;;11.97;nan;100460.09;5017490;28;20013;-71
2023/10/24 00:26:03;;;;;;;14.80;5.35;;;;;;;11.96;nan;100463.75;5017767;28;20676;-71
2023/10/24 00:28:29;;;;;;;10.30;5.40;;;;;;;11.91;nan;100461.03;5019890;28;20032;-71
2023/10/24 00:30:55;;;;;;;9.35;5.25;;;;;;;11.93;nan;100460.81;5017264;28;20018;-72
2023/10/24 00:33:21;;;;;;;10.65;5.45;;;;;;;11.87;nan;100446.69;5016447;28;20071;-72
2023/10/24 00:35:46;;;;;;;8.93;5.05;;;;;;;11.82;nan;100442.06;5016731;28;20120;-71
2023/10/24 00:38:11;;;;;;;9.48;5.03;;;;;;;11.79;nan;100425.91;5017476;28;20718;-72
2023/10/24 00:40:37;;;;;;;12.65;5.78;;;;;;;11.83;nan;100432.34;5016224;28;20398;-72
2023/10/24 00:43:06;;;;;;;7.78;4.95;;;;;;;11.81;nan;100426.47;5015588;28;20025;-72
2023/10/24 00:45:34;;;;;;;9.30;4.63;;;;;;;11.79;nan;100421.44;5017519;28;20107;-72
2023/10/24 00:48:00;;;;;;;9.97;5.17;;;;;;;11.59;nan;100399.88;5050197;28;20132;-71
2023/10/24 00:50:27;;;;;;;7.68;4.85;;;;;;;11.85;nan;100433.72;5018665;28;20032;-71
2023/10/24 00:52:52;;;;;;;11.43;5.15;;;;;;;11.79;nan;100418.78;5015598;28;20526;-72
2023/10/24 00:55:18;;;;;;;7.95;5.03;;;;;;;11.80;nan;100428.31;5019067;28;20034;-72
2023/10/24 00:57:44;;;;;;;6.68;4.40;;;;;;;11.78;nan;100413.75;5015831;28;20658;-71
2023/10/24 01:00:11;;;;;;;12.95;4.50;;;;;;;11.78;nan;100416.38;5015060;28;20033;-72
2023/10/24 01:02:37;;;;;;;11.38;5.00;;;;;;;11.76;nan;100405.28;5012376;28;20031;-72
2023/10/24 01:05:03;;;;;;;11.60;4.90;;;;;;;11.66;nan;100404.03;5014151;28;20462;-72
2023/10/24 01:07:29;;;;;;;10.55;5.15;;;;;;;11.76;nan;100407.91;5019504;28;20761;-72
2023/10/24 01:09:54;;;;;;;8.25;4.57;;;;;;;11.74;nan;100412.63;5016359;28;20134;-72
2023/10/24 01:12:20;;;;;;;9.80;5.10;;;;;;;11.69;nan;100408.03;5014005;28;20033;-73
2023/10/24 01:14:45;;;;;;;9.77;5.05;;;;;;;11.62;nan;100394.16;5013999;28;20036;-67
2023/10/24 01:17:13;;;;;;;7.80;4.72;;;;;;;11.74;nan;100405.50;5014658;28;20029;-67
2023/10/24 01:19:38;;;;;;;10.70;4.80;;;;;;;11.70;nan;100405.16;5016003;28;20022;-68
2023/10/24 01:22:04;;;;;;;9.90;4.85;;;;;;;11.64;nan;100394.75;5013288;28;20029;-68
2023/10/24 01:24:29;;;;;;;10.18;4.90;;;;;;;11.64;nan;100407.94;5016825;28;20036;-67
2023/10/24 01:26:57;;;;;;;9.43;4.15;;;;;;;11.60;nan;100398.88;5015361;28;20607;-67
2023/10/24 01:29:22;;;;;;;8.70;4.05;;;;;;;11.58;nan;100404.38;5013715;28;20030;-66
2023/10/24 01:31:48;;;;;;;9.32;4.10;;;;;;;11.52;nan;100400.03;5011099;28;20112;-67
2023/10/24 01:34:13;;;;;;;9.30;4.07;;;;;;;11.55;nan;100404.03;5016487;28;20091;-67
2023/10/24 01:36:38;;;;;;;9.63;4.07;;;;;;;11.55;nan;100402.19;5014929;28;20101;-66
2023/10/24 01:39:04;;;;;;;8.00;3.53;;;;;;;11.58;nan;100406.22;5019434;28;20027;-66
2023/10/24 01:41:29;;;;;;;8.30;3.70;;;;;;;11.64;nan;100418.47;5013812;28;20536;-67
2023/10/24 01:43:55;;;;;;;9.77;3.72;;;;;;;11.63;nan;100412.38;5014968;28;20428;-66
2023/10/24 01:46:21;;;;;;;7.22;4.13;;;;;;;11.64;nan;100414.00;5013347;28;20026;-67
2023/10/24 01:48:46;;;;;;;6.65;3.63;;;;;;;11.60;nan;100407.56;5016292;28;20021;-67
2023/10/24 01:51:12;;;;;;;9.93;4.20;;;;;;;11.60;nan;100407.56;5016361;28;20423;-69
2023/10/24 01:53:37;;;;;;;7.70;4.00;;;;;;;11.52;nan;100400.03;5017676;28;20038;-72
2023/10/24 01:56:03;;;;;;;9.73;4.28;;;;;;;11.56;nan;100411.69;5017635;28;20391;-72
2023/10/24 01:58:28;;;;;;;6.63;3.90;;;;;;;11.64;nan;100419.28;5016353;28;20046;-72
2023/10/24 02:00:54;;;;;;;6.60;3.28;;;;;;;11.41;nan;100392.91;5017143;28;20361;-73
2023/10/24 02:03:19;;;;;;;6.32;3.40;;;;;;;11.39;nan;100384.44;5015467;28;20069;-67
2023/10/24 02:05:44;;;;;;;7.85;3.60;;;;;;;11.59;nan;100421.81;5014712;28;20057;-67
2023/10/24 02:08:10;;;;;;;7.97;3.80;;;;;;;11.60;nan;100425.25;5014167;28;20017;-68
2023/10/24 02:10:35;;;;;;;769.17;108.35;;;;;;;11.67;nan;100432.00;5017130;28;20093;-68
2023/10/24 02:13:00;;;;;;;10.07;5.80;;;;;;;;;;5017565;28;20658;-68
2023/10/24 02:15:26;;;;;;;14.67;6.23;;;;;;;12.03;nan;100422.22;5020034;28;20030;-66
2023/10/24 02:17:51;;;;;;;9.23;4.00;;;;;;;11.96;nan;100431.31;5016613;28;20030;-67
2023/10/24 02:20:17;;;;;;;7.22;3.67;;;;;;;11.76;nan;100426.38;5018471;28;20104;-67
2023/10/24 02:22:42;;;;;;;5.75;3.22;;;;;;;11.73;nan;100440.00;5018426;28;20033;-68
2023/10/24 02:25:11;;;;;;;8.00;3.63;;;;;;;11.72;nan;100444.50;5019868;28;20037;-68
2023/10/24 02:27:38;;;;;;;7.43;3.78;;;;;;;11.69;nan;100443.13;5020527;28;20362;-68
2023/10/24 02:30:04;;;;;;;11.07;3.67;;;;;;;11.68;nan;100435.44;5022808;28;20037;-67
2023/10/24 02:32:29;;;;;;;8.00;3.90;;;;;;;11.46;nan;100400.94;5024774;28;20541;-69
2023/10/24 02:34:55;;;;;;;7.75;3.90;;;;;;;11.64;nan;100432.47;5019014;28;20033;-68
2023/10/24 02:37:20;;;;;;;8.63;3.67;;;;;;;11.55;nan;100431.22;5020622;28;20025;-71
2023/10/24 02:39:45;;;;;;;6.43;3.65;;;;;;;11.44;nan;100432.00;5020660;28;20037;-72
2023/10/24 02:42:11;;;;;;;9.82;3.55;;;;;;;11.48;nan;100460.31;5021201;28;20021;-72
2023/10/24 02:44:36;;;;;;;5.53;3.58;;;;;;;11.46;nan;100461.59;5019577;28;20085;-69
2023/10/24 02:47:02;;;;;;;7.55;3.05;;;;;;;11.49;nan;100471.66;5021865;28;20037;-69
2023/10/24 02:49:27;;;;;;;5.95;3.60;;;;;;;11.52;nan;100475.69;5017819;28;20089;-68
2023/10/24 02:51:52;;;;;;;8.85;3.42;;;;;;;11.48;nan;100470.06;5019877;28;20033;-68
2023/10/24 02:54:18;;;;;;;6.13;3.28;;;;;;;11.30;nan;100436.72;5016774;28;20506;-68
2023/10/24 02:56:43;;;;;;;5.32;3.25;;;;;;;11.54;nan;100470.97;5018005;28;20061;-68
2023/10/24 02:59:09;;;;;;;7.10;3.50;;;;;;;11.52;nan;100463.31;5016425;28;20483;-68
2023/10/24 03:01:34;;;;;;;5.47;3.40;;;;;;;11.43;nan;100448.88;5017211;28;20033;-72
2023/10/24 03:04:00;;;;;;;6.25;3.55;;;;;;;11.43;nan;100462.06;5019586;28;20623;-68
2023/10/24 03:06:25;;;;;;;5.93;3.08;;;;;;;11.38;nan;100457.47;5016976;28;20041;-68
2023/10/24 03:08:50;;;;;;;5.95;3.20;;;;;;;11.37;nan;100462.94;5020546;28;20399;-69
2023/10/24 03:11:22;;;;;;;8.52;3.40;;;;;;;11.21;nan;100452.06;5019954;28;20064;-73
2023/10/24 03:13:47;;;;;;;7.03;3.33;;;;;;;11.26;nan;100452.19;5023748;28;20026;-72
2023/10/24 03:16:13;;;;;;;6.15;3.30;;;;;;;11.24;nan;100450.81;5017379;28;20080;-72
2023/10/24 03:18:38;;;;;;;7.05;3.25;;;;;;;11.31;nan;100469.16;5021529;28;20029;-74
2023/10/24 03:21:05;;;;;;;5.40;3.17;;;;;;;11.29;nan;100472.81;5022831;28;20029;-71
2023/10/24 03:23:30;;;;;;;5.05;2.88;;;;;;;11.29;nan;100475.44;5018448;28;20025;-72
2023/10/24 03:25:56;;;;;;;7.22;3.30;;;;;;;11.26;nan;100478.53;5016767;28;20026;-72
2023/10/24 03:28:21;;;;;;;7.88;3.53;;;;;;;11.22;nan;100474.75;5018469;28;21104;-72
2023/10/24 03:30:48;;;;;;;9.18;3.63;;;;;;;11.20;nan;100471.53;5015772;28;20034;-72
2023/10/24 03:33:14;;;;;;;6.88;3.30;;;;;;;11.18;nan;100462.25;5017958;28;20017;-72
2023/10/24 03:35:39;;;;;;;8.23;3.45;;;;;;;11.24;nan;100477.97;5018144;28;20034;-72
2023/10/24 03:38:05;;;;;;;7.47;3.67;;;;;;;11.21;nan;100470.50;5015328;28;20551;-73
2023/10/24 03:40:30;;;;;;;7.82;3.40;;;;;;;11.20;nan;100468.88;5020747;28;20067;-72
2023/10/24 03:42:55;;;;;;;6.43;2.95;;;;;;;11.21;nan;100459.97;5016451;28;20079;-73
2023/10/24 03:45:21;;;;;;;5.78;3.00;;;;;;;11.05;nan;100452.72;5021480;28;20166;-74
2023/10/24 03:47:48;;;;;;;8.68;3.22;;;;;;;11.11;nan;100467.63;5017946;28;20053;-72
2023/10/24 03:50:15;;;;;;;8.40;3.40;;;;;;;11.07;nan;100462.00;5016733;28;20113;-72
2023/10/24 03:52:40;;;;;;;9.15;3.30;;;;;;;10.91;nan;100444.22;5014642;28;20052;-73
2023/10/24 03:55:06;;;;;;;5.20;3.10;;;;;;;10.89;nan;100456.00;5019087;28;20476;-73
2023/10/24 03:57:31;;;;;;;9.60;3.65;;;;;;;10.89;nan;100456.78;5022774;28;20056;-71
2023/10/24 03:59:57;;;;;;;9.80;3.58;;;;;;;10.83;nan;100450.59;5017180;28;20025;-72
2023/10/24 04:02:22;;;;;;;6.68;3.55;;;;;;;10.82;nan;100466.63;5018816;28;20034;-73
2023/10/24 04:04:48;;;;;;;5.78;3.63;;;;;;;10.79;nan;100465.25;5016821;28;20033;-72
2023/10/24 04:07:13;;;;;;;8.13;3.95;;;;;;;10.59;nan;100443.66;5021719;28;20022;-73
2023/10/24 04:09:39;;;;;;;15.27;4.28;;;;;;;10.81;nan;100473.72;5015003;28;20392;-72
2023/10/24 04:12:04;;;;;;;16.48;7.60;;;;;;;10.79;nan;100456.53;5015344;28;20080;-71
2023/10/24 04:14:30;;;;;;;23.48;9.68;;;;;;;10.83;nan;100465.63;5005303;28;20029;-72
2023/10/24 04:16:56;;;;;;;19.52;9.75;;;;;;;;;;5020757;28;20480;-72
2023/10/24 04:19:21;;;;;;;24.23;10.98;;;;;;;;;;5016977;28;20532;-73
2023/10/24 04:21:47;;;;;;;32.00;13.98;;;;;;;;;;5015704;28;20101;-73
2023/10/24 04:24:12;;;;;;;24.87;12.00;;;;;;;;;;5017030;28;20064;-72
2023/10/24 04:26:37;;;;;;;21.75;7.47;;;;;;;;;;5018360;28;20629;-74
2023/10/24 04:29:03;;;;;;;15.13;6.07;;;;;;;;;;5018121;28;20037;-73
2023/10/24 04:31:28;;;;;;;17.48;9.43;;;;;;;;;;5014767;28;20536;-72
2023/10/24 04:33:53;;;;;;;17.97;9.47;;;;;;;;;;5017409;28;20112;-72
2023/10/24 04:36:18;;;;;;;29.63;11.10;;;;;;;;;;5011732;28;20630;-72
2023/10/24 04:38:44;;;;;;;24.02;10.25;;;;;;;;;;5016670;28;20290;-73
2023/10/24 04:41:09;;;;;;;20.98;9.80;;;;;;;;;;5018173;28;20032;-72
2023/10/24 04:43:34;;;;;;;24.73;8.47;;;;;;;;;;5019833;28;20039;-73
2023/10/24 04:46:00;;;;;;;19.67;7.63;;;;;;;;;;5015705;28;20275;-73
2023/10/24 04:48:25;;;;;;;20.08;6.78;;;;;;;;;;5019298;28;20270;-72
2023/10/24 04:50:51;;;;;;;24.35;6.70;;;;;;;;;;5013329;28;20805;-73
2023/10/24 04:53:16;;;;;;;21.73;5.68;;;;;;;;;;5012100;28;20045;-71
2023/10/24 04:55:42;;;;;;;24.83;5.68;;;;;;;;;;5014968;28;20044;-69
2023/10/24 04:58:07;;;;;;;19.80;5.72;;;;;;;;;;5012610;28;20086;-73
2023/10/24 05:00:32;;;;;;;17.98;5.32;;;;;;;;;;5012475;28;20108;-73
2023/10/24 05:02:58;;;;;;;29.40;5.60;;;;;;;;;;5011881;28;20885;-69
2023/10/24 05:05:23;;;;;;;26.85;5.30;;;;;;;;;;5016054;28;20435;-69
2023/10/24 05:07:48;;;;;;;16.70;5.15;;;;;;;;;;5013927;28;20043;-69
2023/10/24 05:10:14;;;;;;;27.00;5.18;;;;;;;;;;5012117;28;20022;-69
2023/10/24 05:12:39;;;;;;;23.33;4.83;;;;;;;;;;5015467;28;20029;-68
2023/10/24 05:15:05;;;;;;;19.95;4.43;;;;;;;;;;5013820;28;20267;-68
2023/10/24 05:17:30;;;;;;;11.80;4.05;;;;;;;;;;5016216;28;20078;-70
2023/10/24 05:20:07;;;;;;;10.50;4.33;;;;;;;;;;5015939;28;20117;-69
2023/10/24 05:22:32;;;;;;;26.40;5.70;;;;;;;;;;5019380;28;20472;-70
2023/10/24 05:24:58;;;;;;;10.98;4.35;;;;;;;;;;5014316;28;20034;-68
2023/10/24 05:27:23;;;;;;;10.60;4.20;;;;;;;;;;5017754;28;20108;-68
2023/10/24 05:29:48;;;;;;;11.02;4.30;;;;;;;;;;5015997;28;20305;-69
2023/10/24 05:32:13;;;;;;;13.95;4.03;;;;;;;;;;5020704;28;20026;-69
2023/10/24 05:34:39;;;;;;;9.52;3.85;;;;;;;;;;5012482;28;20026;-70
2023/10/24 05:37:04;;;;;;;11.80;4.00;;;;;;;;;;5015627;28;20035;-72
2023/10/24 05:39:30;;;;;;;11.87;3.67;;;;;;;;;;5013239;28;20037;-71
2023/10/24 05:41:56;;;;;;;13.93;3.90;;;;;;;;;;5011656;28;20352;-72
2023/10/24 05:44:21;;;;;;;9.40;3.90;;;;;;;;;;5011423;28;20029;-72
2023/10/24 05:46:46;;;;;;;12.37;4.30;;;;;;;;;;5014507;28;20519;-71
2023/10/24 05:49:12;;;;;;;8.13;3.93;;;;;;;;;;5012425;28;20361;-72
2023/10/24 05:51:37;;;;;;;8.18;4.25;;;;;;;;;;5015404;28;20290;-73
2023/10/24 05:54:17;;;;;;;11.05;4.00;;;;;;;;;;4982801;28;20057;-71
2023/10/24 05:56:43;;;;;;;9.57;4.20;;;;;;;;;;5013870;28;20026;-69
2023/10/24 05:59:08;;;;;;;6.50;3.73;;;;;;;;;;5014450;28;20037;-68
2023/10/24 06:01:33;;;;;;;6.20;3.63;;;;;;;;;;5012720;28;20279;-69
2023/10/24 06:03:58;;;;;;;10.03;4.10;;;;;;;;;;5020364;28;20025;-69
2023/10/24 06:06:24;;;;;;;12.60;4.47;;;;;;;;;;5013952;28;20468;-69
2023/10/24 06:08:49;;;;;;;7.33;4.17;;;;;;;11.26;nan;100428.44;5011519;28;20037;-69
2023/10/24 06:11:16;;;;;;;10.85;4.20;;;;;;;11.25;nan;100432.13;5013297;28;20029;-68
2023/10/24 06:13:41;;;;;;;10.43;3.95;;;;;;;11.34;nan;100435.22;5015722;28;20087;-68
2023/10/24 06:16:07;;;;;;;9.23;4.45;;;;;;;;;;5015551;28;20029;-68
2023/10/24 06:18:33;;;;;;;9.60;4.10;;;;;;;;;;5014332;28;20368;-68
2023/10/24 06:20:58;;;;;;;9.35;3.97;;;;;;;;;;5012297;28;20127;-69
2023/10/24 06:23:24;;;;;;;6.93;4.13;;;;;;;;;;5010344;28;20030;-70
2023/10/24 06:25:49;;;;;;;8.23;4.25;;;;;;;;;;5013270;28;20340;-71
2023/10/24 06:28:15;;;;;;;6.32;4.22;;;;;;;;;;5016869;28;20033;-71
2023/10/24 06:30:40;;;;;;;7.07;4.00;;;;;;;;;;5014768;28;20080;-75
2023/10/24 06:35:40;;;;;;;14.63;4.55;;;;;;;;;;5452922;23;20062;-70
2023/10/24 06:38:06;;;;;;;7.80;3.97;;;;;;;;;;5018918;28;20104;-70
2023/10/24 06:40:31;;;;;;;6.93;4.33;;;;;;;;;;5015238;28;20487;-70
2023/10/24 06:42:56;;;;;;;9.00;4.30;;;;;;;;;;5019671;28;20298;-70
2023/10/24 06:45:22;;;;;;;12.50;4.40;;;;;;;;;;5014733;28;20021;-70
2023/10/24 06:47:47;;;;;;;10.88;4.32;;;;;;;;;;5016981;28;20279;-70
2023/10/24 06:50:12;;;;;;;7.68;4.60;;;;;;;;;;5015328;28;20032;-70
2023/10/24 06:52:38;;;;;;;12.47;4.63;;;;;;;;;;5016782;28;20029;-70
2023/10/24 06:55:04;;;;;;;11.07;4.45;;;;;;;12.75;nan;100444.66;5016482;28;20309;-70
2023/10/24 06:57:30;;;;;;;7.57;4.75;;;;;;;;;;5019702;28;20037;-69
2023/10/24 06:59:55;;;;;;;10.93;5.25;;;;;;;;;;5021231;28;20099;-70
2023/10/24 07:02:21;;;;;;;13.45;5.13;;;;;;;;;;5022840;28;20026;-69
2023/10/24 07:04:46;;;;;;;9.87;4.73;;;;;;;;;;5019041;28;20035;-69
2023/10/24 07:07:11;;;;;;;13.23;5.15;;;;;;;;;;5024271;28;20029;-71
2023/10/24 07:09:36;;;;;;;6.10;4.27;;;;;;;;;;5017590;28;20053;-70
2023/10/24 07:12:02;;;;;;;8.97;4.43;;;;;;;;;;5018322;28;20416;-70
2023/10/24 07:14:27;;;;;;;12.02;5.30;;;;;;;;;;5018921;28;20026;-70
2023/10/24 07:16:52;;;;;;;9.00;4.53;;;;;;;;;;5018417;28;20491;-70
2023/10/24 07:19:18;;;;;;;12.80;4.55;;;;;;;;;;5018062;28;20266;-70
2023/10/24 07:21:43;;;;;;;6.65;4.45;;;;;;;;;;5017790;28;20055;-70
2023/10/24 07:24:09;;;;;;;9.70;4.05;;;;;;;;;;5017615;28;20026;-70
2023/10/24 07:26:34;;;;;;;14.00;4.25;;;;;;;;;;5023687;28;20041;-70
2023/10/24 07:28:59;;;;;;;10.53;4.07;;;;;;;;;;5017635;28;20018;-71
2023/10/24 07:31:25;;;;;;;13.23;4.00;;;;;;;;;;5020178;28;20124;-70
2023/10/24 07:33:50;;;;;;;10.27;4.37;;;;;;;;;;5019215;28;20271;-70
2023/10/24 07:36:15;;;;;;;7.73;4.17;;;;;;;;;;5020406;28;20063;-71
2023/10/24 07:38:40;;;;;;;8.50;3.85;;;;;;;;;;5021182;28;20278;-71
2023/10/24 07:41:06;;;;;;;9.30;3.90;;;;;;;14.63;nan;100427.13;5019284;28;20049;-70
2023/10/24 07:43:32;;;;;;;10.85;4.18;;;;;;;14.71;nan;100419.78;5018480;28;20275;-73
2023/10/24 07:45:57;;;;;;;12.13;4.20;;;;;;;14.86;nan;100415.38;5016055;28;20072;-71
2023/10/24 07:48:26;;;;;;;15.60;4.13;;;;;;;14.96;nan;100398.75;5016666;28;20026;-71
2023/10/24 07:50:52;;;;;;;8.90;3.80;;;;;;;15.06;nan;100398.84;5015353;28;20041;-71
2023/10/24 07:53:19;;;;;;;9.98;3.80;;;;;;;15.19;nan;100391.50;5020335;28;20096;-72
2023/10/24 07:55:44;;;;;;;8.48;3.67;;;;;;;15.37;nan;100398.22;5018842;28;20038;-72
2023/10/24 07:58:10;;;;;;;9.20;4.13;;;;;;;15.43;nan;100376.78;5017592;28;20071;-71
2023/10/24 08:00:35;;;;;;;11.07;3.70;;;;;;;15.64;nan;100392.81;5018303;28;20030;-70
2023/10/24 08:03:01;;;;;;;8.10;3.40;;;;;;;15.78;nan;100388.66;5017284;28;20034;-72
2023/10/24 08:05:26;;;;;;;11.38;3.58;;;;;;;15.91;nan;100387.38;5016781;28;20511;-71
2023/10/24 08:07:51;;;;;;;6.82;3.17;;;;;;;16.06;nan;100399.91;5015876;28;20041;-71
2023/10/24 08:10:17;;;;;;;6.43;3.03;;;;;;;16.14;nan;100391.44;5015862;28;20032;-71
2023/10/24 08:12:43;;;;;;;8.07;3.50;;;;;;;16.32;nan;100390.94;5018150;28;20430;-72
2023/10/24 08:15:08;;;;;;;5.13;2.83;;;;;;;16.49;nan;100390.69;5016702;28;20025;-71
2023/10/24 08:17:34;;;;;;;6.35;2.97;;;;;;;16.66;nan;100387.78;5015948;28;20594;-70
2023/10/24 08:19:59;;;;;;;8.55;3.50;;;;;;;16.80;nan;100386.22;5015283;28;20030;-72
2023/10/24 08:22:25;;;;;;;8.23;3.25;;;;;;;17.01;nan;100394.19;5017030;28;20021;-70
2023/10/24 08:24:50;;;;;;;9.60;3.10;;;;;;;17.05;nan;100379.31;5015596;28;20075;-71
2023/10/24 08:27:16;;;;;;;8.55;3.25;;;;;;;17.21;nan;100382.72;5016139;28;20096;-69
2023/10/24 08:29:41;;;;;;;8.13;3.38;;;;;;;17.30;nan;100381.09;5015790;28;20025;-70
2023/10/24 08:32:07;;;;;;;10.90;3.00;;;;;;;17.37;nan;100380.81;5021719;28;20041;-70
2023/10/24 08:34:36;;;;;;;9.88;2.60;;;;;;;17.51;nan;100381.84;5015332;28;20032;-70
2023/10/24 08:37:03;;;;;;;7.70;2.88;;;;;;;17.58;nan;100363.72;5014524;28;20099;-70
2023/10/24 08:39:28;;;;;;;11.27;3.03;;;;;;;17.74;nan;100383.09;5013822;28;20029;-70
2023/10/24 08:41:57;;;;;;;10.50;2.80;;;;;;;17.82;nan;100365.78;5016255;28;20626;-71
2023/10/24 08:44:24;;;;;;;11.98;2.70;;;;;;;17.87;nan;100357.75;5031236;28;20103;-70
2023/10/24 08:46:50;;;;;;;5.10;2.92;;;;;;;17.95;nan;100359.84;5015730;28;20030;-71
2023/10/24 08:49:18;;;;;;;7.43;2.55;;;;;;;18.07;nan;100373.63;5015973;28;20083;-71
2023/10/24 08:51:45;;;;;;;12.27;3.45;;;;;;;18.19;nan;100380.50;5015376;28;20090;-70
2023/10/24 08:54:10;;;;;;;12.38;2.90;;;;;;;18.25;nan;100379.41;5017430;28;20032;-72
2023/10/24 08:56:37;;;;;;;7.32;3.38;;;;;;;18.32;nan;100382.56;5017825;28;20638;-72
2023/10/24 08:59:07;;;;;;;10.85;3.03;;;;;;;18.35;nan;100376.66;5016015;28;20028;-70
2023/10/24 09:01:35;;;;;;;13.32;3.13;;;;;;;18.45;nan;100371.25;5016330;28;20053;-70
2023/10/24 09:04:01;;;;;;;8.32;2.88;;;;;;;18.52;nan;100370.94;5016477;28;20639;-71
2023/10/24 09:06:27;;;;;;;9.32;2.92;;;;;;;18.61;nan;100371.94;5015110;28;20549;-71
2023/10/24 09:08:52;;;;;;;5.95;2.88;;;;;;;18.62;nan;100365.53;5015556;28;20018;-71
2023/10/24 09:11:18;;;;;;;6.10;2.78;;;;;;;18.77;nan;100370.00;5003218;28;20048;-71
2023/10/24 09:13:44;;;;;;;8.93;2.90;;;;;;;18.85;nan;100374.72;5016835;28;20494;-70
2023/10/24 09:16:11;;;;;;;7.88;3.10;;;;;;;18.92;nan;100377.06;5015578;28;20056;-70
2023/10/24 09:18:39;;;;;;;8.05;2.80;;;;;;;18.94;nan;100352.75;5015085;28;20033;-71
2023/10/24 09:21:06;;;;;;;8.02;3.20;;;;;;;19.06;nan;100359.31;5015358;28;20021;-70
2023/10/24 09:23:35;;;;;;;8.35;3.28;;;;;;;19.07;nan;100347.53;5013354;28;20447;-70
2023/10/24 09:26:04;;;;;;;;;;;;;;;19.23;nan;100347.41;5015649;28;20025;-71
2023/10/24 09:28:30;;;;;;;10.52;3.30;;;;;;;19.27;nan;100346.50;5014449;28;19913;-73
2023/10/24 09:30:57;;;;;;;10.57;3.55;;;;;;;19.20;nan;100315.91;5013886;28;20112;-72
2023/10/24 09:33:25;;;;;;;10.88;4.22;;;;;;;19.38;nan;100327.72;5017136;28;20958;-72
2023/10/24 09:35:50;;;;;;;11.13;4.35;;;;;;;19.31;nan;100318.19;5015424;28;20046;-71
2023/10/24 09:38:21;;;;;;;12.18;3.15;;;;;;;19.38;nan;100311.72;5012702;28;20025;-71
2023/10/24 09:40:46;;;;;;;10.85;3.50;;;;;;;19.52;nan;100324.06;5012699;28;20036;-71
2023/10/24 09:43:19;;;;;;;8.02;3.13;;;;;;;19.62;nan;100323.16;5019161;28;20599;-70
2023/10/24 09:45:45;;;;;;;12.48;3.95;;;;;;;19.54;nan;100297.88;5007289;28;20064;-70
2023/10/24 09:48:11;;;;;;;9.43;3.00;;;;;;;19.75;nan;100319.00;5015954;28;20383;-70
2023/10/24 09:50:41;;;;;;;7.60;3.05;;;;;;;19.79;nan;100298.63;5015067;28;20033;-71
2023/10/24 09:53:07;;;;;;;9.73;3.00;;;;;;;19.92;nan;100302.44;5015506;28;20025;-71
2023/10/24 09:55:35;;;;;;;7.22;3.28;;;;;;;19.98;nan;100291.41;5015773;28;20025;-70
2023/10/24 09:58:02;;;;;;;7.45;2.67;;;;;;;20.12;nan;100288.81;5014292;28;20668;-70
2023/10/24 10:00:30;;;;;;;7.97;2.47;;;;;;;20.22;nan;100284.38;5014006;28;20037;-70
2023/10/24 10:02:58;;;;;;;5.65;2.50;;;;;;;20.33;nan;100288.50;5014995;28;20091;-70
2023/10/24 10:05:27;;;;;;;13.60;2.30;;;;;;;20.45;nan;100280.78;5015099;28;20036;-69
2023/10/24 10:07:54;;;;;;;6.60;2.28;;;;;;;20.43;nan;100261.56;5015672;28;20517;-70
2023/10/24 10:10:20;;;;;;;8.35;2.50;;;;;;;20.60;nan;100279.75;5014788;28;20037;-70
2023/10/24 10:12:47;;;;;;;5.47;2.15;;;;;;;20.60;nan;100253.78;5021754;28;20513;-69
2023/10/24 10:15:49;;;;;;;4.30;2.30;;;;;;;20.79;nan;100260.94;5011969;28;20022;-70
2023/10/24 10:18:52;;;;;;;7.05;2.42;;;;;;;20.90;nan;100258.84;5012071;28;20033;-70
2023/10/24 10:21:45;;;;;;;10.77;2.92;;;;;;;20.88;nan;100236.94;5017749;28;20110;-70
2023/10/24 10:24:13;;;;;;;7.28;2.40;;;;;;;20.99;nan;100239.13;5018431;28;20057;-70
2023/10/24 10:26:47;;;;;;;6.43;2.17;;;;;;;21.05;nan;100253.22;5019751;28;20026;-70
2023/10/24 10:29:25;;;;;;;6.07;2.05;;;;;;;21.05;nan;100250.53;5018083;28;20030;-70
2023/10/24 10:32:11;;;;;;;5.30;2.13;;;;;;;21.06;nan;100244.09;5019526;28;20108;-70
2023/10/24 10:34:37;;;;;;;10.43;2.75;;;;;;;21.01;nan;100230.81;5015288;28;20099;-70
2023/10/24 10:37:04;;;;;;;13.35;2.35;;;;;;;21.10;nan;100233.59;5019820;28;20033;-70
2023/10/24 10:39:29;;;;;;;5.75;2.63;;;;;;;21.16;nan;100224.34;5019913;28;20562;-72
2023/10/24 10:41:55;;;;;;;8.25;2.55;;;;;;;21.23;nan;100222.06;5019858;28;20040;-70
2023/10/24 10:44:39;;;;;;;8.60;2.38;;;;;;;21.24;nan;100208.38;5019438;28;20021;-71
2023/10/24 10:47:06;;;;;;;8.80;2.20;;;;;;;21.36;nan;100210.53;5023699;28;20033;-70
2023/10/24 10:49:41;;;;;;;6.22;2.38;;;;;;;21.47;nan;100207.66;5020007;28;20053;-71
2023/10/24 10:52:17;;;;;;;7.80;2.65;;;;;;;21.48;nan;100195.81;5018066;28;20048;-71
2023/10/24 10:54:59;;;;;;;8.32;2.38;;;;;;;21.54;nan;100195.41;5015350;28;20353;-70
2023/10/24 10:57:29;;;;;;;4.85;2.35;;;;;;;21.58;nan;100195.59;5019121;28;20030;-70
2023/10/24 11:00:04;;;;;;;11.82;2.47;;;;;;;21.66;nan;100192.19;5026973;28;20018;-71
2023/10/24 11:02:45;;;;;;;4.70;2.30;;;;;;;21.73;nan;100192.56;5020099;28;20033;-70
2023/10/24 11:05:35;;;;;;;8.00;2.10;;;;;;;21.78;nan;100187.06;5016470;28;20071;-71
2023/10/24 11:08:02;;;;;;;6.00;2.40;;;;;;;21.76;nan;100172.41;5019858;28;20021;-70
2023/10/24 11:10:57;;;;;;;8.00;2.67;;;;;;;21.88;nan;100170.75;5018076;28;20033;-71
2023/10/24 11:13:44;;;;;;;7.28;1.95;;;;;;;21.99;nan;100170.50;5015592;28;20033;-71
2023/10/24 11:16:11;;;;;;;10.57;2.63;;;;;;;21.99;nan;100162.47;5018145;28;20095;-69
2023/10/24 11:18:39;;;;;;;8.45;2.30;;;;;;;22.08;nan;100163.31;5019771;28;20025;-71
2023/10/24 11:21:10;;;;;;;6.68;1.95;;;;;;;22.16;nan;100157.19;5019118;28;20108;-71
2023/10/24 11:23:40;;;;;;;6.10;2.00;;;;;;;22.24;nan;100156.47;5024247;28;20049;-70
2023/10/24 11:26:05;;;;;;;7.10;2.33;;;;;;;22.26;nan;100164.97;5019388;28;20386;-71
2023/10/24 11:28:32;;;;;;;10.15;1.83;;;;;;;22.18;nan;100162.25;5019307;28;20029;-70
2023/10/24 11:30:57;;;;;;;4.80;1.50;;;;;;;22.38;nan;100179.72;5016822;28;20474;-71
2023/10/24 11:33:24;;;;;;;8.85;1.95;;;;;;;22.46;nan;100170.91;5016626;28;20513;-69
2023/10/24 11:35:50;;;;;;;6.30;1.90;;;;;;;22.51;nan;100157.38;5024034;28;20478;-70
2023/10/24 11:38:16;;;;;;;13.35;2.47;;;;;;;22.43;nan;100148.16;5015558;28;20057;-69
2023/10/24 11:40:46;;;;;;;6.97;2.45;;;;;;;22.52;nan;100153.56;5017168;28;20021;-69
2023/10/24 11:43:12;;;;;;;9.77;2.15;;;;;;;22.45;nan;100129.06;5018250;28;20034;-68
2023/10/24 11:45:39;;;;;;;6.70;2.55;;;;;;;22.38;nan;100109.97;5016637;28;20032;-69
2023/10/24 11:48:05;;;;;;;5.13;2.53;;;;;;;22.44;nan;100108.72;5015894;28;20025;-71
2023/10/24 11:50:38;;;;;;;6.43;2.05;;;;;;;22.52;nan;100111.41;5015968;28;20492;-70
2023/10/24 11:53:04;;;;;;;5.57;1.77;;;;;;;22.63;nan;100117.28;5021159;28;20070;-70
2023/10/24 11:55:31;;;;;;;11.30;2.30;;;;;;;22.67;nan;100117.44;5018035;28;20021;-71
2023/10/24 11:57:59;;;;;;;9.10;2.20;;;;;;;22.73;nan;100114.31;5015014;28;20845;-70
2023/10/24 12:00:28;;;;;;;13.10;2.33;;;;;;;22.71;nan;100123.78;5014465;28;20140;-69
2023/10/24 12:02:54;;;;;;;6.78;2.05;;;;;;;22.78;nan;100134.06;5017067;28;20071;-70
2023/10/24 12:05:19;;;;;;;6.65;2.30;;;;;;;22.84;nan;100127.44;5017633;28;20539;-71
2023/10/24 12:07:52;;;;;;;6.00;2.03;;;;;;;22.96;nan;100118.75;5016729;28;20030;-72
2023/10/24 12:10:17;;;;;;;5.85;1.77;;;;;;;23.00;nan;100109.78;5019199;28;20490;-70
2023/10/24 12:12:45;;;;;;;7.75;2.10;;;;;;;22.98;nan;100095.88;5017457;28;20029;-70
2023/10/24 12:15:10;;;;;;;10.90;2.10;;;;;;;23.06;nan;100087.06;5015039;28;20026;-71
2023/10/24 12:17:36;;;;;;;8.50;2.10;;;;;;;22.93;nan;100063.78;5017128;28;20090;-71
2023/10/24 12:20:01;;;;;;;5.78;1.65;;;;;;;23.10;nan;100076.44;5017790;28;20032;-70